Time;durP1;ratioP1;P1;durP2;ratioP2;P2;SDS_P1;SDS_P2;PMS_P1;PMS_P2;Temp;Humidity;BMP_temperature;BMP_pressure;BME280_temperature;BME280_humidity;BME280_pressure;Samples;Min_cycle;Max_cycle;Signal;HPM_P1;HPM_P2
2022/11/10 00:02:59;;;;;;;69.88;31.13;;;;;;;;;;4937518;29;20314;-63
2022/11/10 00:05:45;;;;;;;56.17;28.90;;;;;;;;;;4937550;29;20204;-63
2022/11/10 00:08:31;;;;;;;64.10;30.10;;;;;;;;;;4937278;29;20212;-63
2022/11/10 00:11:17;;;;;;;58.22;28.98;;;;;;;;;;4937261;29;20554;-63
2022/11/10 00:17:09;;;;;;;60.73;29.17;;;;;;;;;;4936932;29;20236;-63
2022/11/10 00:19:54;;;;;;;60.85;30.20;;;;;;;;;;4937374;29;20592;-63
2022/11/10 00:22:40;;;;;;;68.95;34.38;;;;;;;;;;4937416;29;20204;-63
2022/11/10 00:25:26;;;;;;;71.03;31.13;;;;;;;;;;4937292;29;20219;-63
2022/11/10 00:28:12;;;;;;;64.10;30.50;;;;;;;;;;4925505;29;20204;-63
2022/11/10 00:30:58;;;;;;;63.50;30.67;;;;;;;;;;4918450;29;20192;-62
2022/11/10 00:33:43;;;;;;;59.72;29.98;;;;;;;;;;4918413;29;20613;-63
2022/11/10 00:36:28;;;;;;;60.28;29.52;;;;;;;;;;4918251;29;20268;-63
2022/11/10 00:39:14;;;;;;;57.60;29.40;;;;;;;;;;4918225;29;20633;-63
2022/11/10 00:41:59;;;;;;;56.55;27.90;;;;;;;;;;4918020;29;20194;-62
2022/11/10 00:44:45;;;;;;;64.57;29.95;;;;;;;;;;4918107;29;20722;-63
2022/11/10 00:47:30;;;;;;;62.13;31.58;;;;;;;;;;4921079;29;20716;-62
2022/11/10 00:50:16;;;;;;;75.15;33.85;;;;;;;;;;4921892;29;20261;-62
2022/11/10 00:53:02;;;;;;;63.45;29.58;;;;;;;;;;4921754;29;20219;-63
2022/11/10 00:55:47;;;;;;;64.63;29.50;;;;;;;;;;4921470;29;20641;-63
2022/11/10 00:58:33;;;;;;;57.42;28.52;;;;;;;;;;4921362;29;20245;-63
2022/11/10 01:01:21;;;;;;;66.43;28.98;;;;;;;;;;4921526;29;20628;-63
2022/11/10 01:04:07;;;;;;;57.17;29.33;;;;;;;;;;4921533;29;20201;-61
2022/11/10 01:06:52;;;;;;;66.13;31.77;;;;;;;;;;4921497;29;20220;-63
2022/11/10 01:09:38;;;;;;;59.10;29.63;;;;;;;;;;4921644;29;20217;-63
2022/11/10 01:12:27;;;;;;;55.22;28.83;;;;;;;;;;4921215;29;20208;-61
2022/11/10 01:15:13;;;;;;;64.88;35.90;;;;;;;;;;4921431;29;20200;-63
2022/11/10 01:17:58;;;;;;;59.15;31.52;;;;;;;;;;4921218;29;20252;-62
2022/11/10 01:20:49;;;;;;;61.78;28.80;;;;;;;;;;4920827;29;20212;-62
2022/11/10 01:23:35;;;;;;;60.40;28.13;;;;;;;;;;4921008;29;20640;-63
2022/11/10 01:26:20;;;;;;;59.08;28.80;;;;;;;;;;4920928;29;20219;-63
2022/11/10 01:29:05;;;;;;;57.33;29.85;;;;;;;;;;4921033;29;20228;-63
2022/11/10 01:31:51;;;;;;;57.28;28.95;;;;;;;;;;4920881;29;20201;-63
2022/11/10 01:34:36;;;;;;;57.95;28.77;;;;;;;;;;4921359;29;20256;-63
2022/11/10 01:37:22;;;;;;;55.63;29.70;;;;;;;;;;4920861;29;20671;-62
2022/11/10 01:40:09;;;;;;;57.97;28.97;;;;;;;;;;4921229;29;20216;-63
2022/11/10 01:42:57;;;;;;;63.85;31.10;;;;;;;;;;4920933;29;20358;-63
2022/11/10 01:45:42;;;;;;;65.68;29.90;;;;;;;;;;4920518;29;20204;-63
2022/11/10 01:48:34;;;;;;;58.25;27.63;;;;;;;;;;4920990;29;20216;-63
2022/11/10 01:51:28;;;;;;;66.00;31.15;;;;;;;;;;4920764;29;20582;-63
2022/11/10 01:54:18;;;;;;;54.47;28.33;;;;;;;;;;4920323;29;20719;-63
2022/11/10 01:57:08;;;;;;;58.95;29.38;;;;;;;;;;4881016;29;20206;-63
2022/11/10 01:59:54;;;;;;;60.15;28.50;;;;;;;;;;4881163;29;20257;-62
2022/11/10 02:03:16;;;;;;;50.90;26.65;;;;;;;;;;4881176;29;20217;-63
2022/11/10 02:06:02;;;;;;;58.15;28.63;;;;;;;;;;4881370;29;20568;-62
2022/11/10 02:08:48;;;;;;;70.32;33.17;;;;;;;;;;4868019;29;20202;-62
2022/11/10 02:11:35;;;;;;;81.50;33.28;;;;;;;;;;4881161;29;20225;-63
2022/11/10 02:14:21;;;;;;;68.63;30.33;;;;;;;;;;4880943;29;20218;-63
2022/11/10 02:17:06;;;;;;;63.73;30.60;;;;;;;;;;4880760;29;20570;-62
2022/11/10 02:19:57;;;;;;;66.35;30.92;;;;;;;;;;4880887;29;20285;-63
2022/11/10 02:22:43;;;;;;;64.17;28.47;;;;;;;;;;4881056;29;20218;-63
2022/11/10 02:25:30;;;;;;;62.05;29.10;;;;;;;;;;4880908;29;20631;-62
2022/11/10 02:28:16;;;;;;;63.90;28.57;;;;;;;;;;4894530;29;20228;-63
2022/11/10 02:31:03;;;;;;;58.47;28.73;;;;;;;;;;4920068;29;20228;-63
2022/11/10 02:33:49;;;;;;;56.63;28.80;;;;;;;;;;4919910;29;20270;-62
2022/11/10 02:36:35;;;;;;;63.60;30.08;;;;;;;;;;4919639;29;20200;-63
2022/11/10 02:39:20;;;;;;;68.60;31.33;;;;;;;;;;4919589;29;20225;-63
2022/11/10 02:42:09;;;;;;;73.13;31.20;;;;;;;;;;4919619;29;20204;-63
2022/11/10 02:44:54;;;;;;;67.45;29.33;;;;;;;;;;4919367;29;20672;-63
2022/11/10 02:47:40;;;;;;;65.50;29.63;;;;;;;;;;4919448;29;20275;-63
2022/11/10 02:50:25;;;;;;;62.10;29.40;;;;;;;;;;4919561;29;20288;-63
2022/11/10 02:53:11;;;;;;;56.20;29.00;;;;;;;;;;4920168;29;20209;-63
2022/11/10 02:55:56;;;;;;;60.97;29.67;;;;;;;;;;4919449;29;20667;-63
2022/11/10 02:58:42;;;;;;;62.58;29.38;;;;;;;;;;4919278;29;20205;-63
2022/11/10 03:01:27;;;;;;;68.77;31.70;;;;;;;;;;4919662;29;20208;-63
2022/11/10 03:04:14;;;;;;;73.97;31.98;;;;;;;;;;4920297;29;20251;-63
2022/11/10 03:06:59;;;;;;;62.92;29.95;;;;;;;;;;4919113;29;20284;-63
2022/11/10 03:09:45;;;;;;;67.63;30.93;;;;;;;;;;4918728;29;20710;-63
2022/11/10 03:12:30;;;;;;;62.70;29.83;;;;;;;;;;4919605;29;20231;-63
2022/11/10 03:15:16;;;;;;;62.77;29.93;;;;;;;;;;4919148;29;20212;-63
2022/11/10 03:18:03;;;;;;;80.20;31.97;;;;;;;;;;4919469;29;20564;-63
2022/11/10 03:20:49;;;;;;;86.67;54.63;;;;;;;;;;4905211;29;20208;-63
2022/11/10 03:23:35;;;;;;;69.38;33.28;;;;;;;;;;4919140;29;20208;-61
2022/11/10 03:26:21;;;;;;;64.82;30.15;;;;;;;;;;4919468;29;20212;-63
2022/11/10 03:29:06;;;;;;;59.93;30.50;;;;;;;;;;4919092;29;20527;-63
2022/11/10 03:31:52;;;;;;;62.70;30.00;;;;;;;;;;4919026;29;20612;-62
2022/11/10 03:34:37;;;;;;;69.63;30.63;;;;;;;;;;4919589;29;20193;-62
2022/11/10 03:37:23;;;;;;;64.93;30.47;;;;;;;;;;4918864;29;20213;-63
2022/11/10 03:40:09;;;;;;;60.13;30.17;;;;;;;;;;4918999;29;20279;-63
2022/11/10 03:42:55;;;;;;;63.55;30.35;;;;;;;;;;4918569;29;20628;-63
2022/11/10 03:45:43;;;;;;;73.03;32.27;;;;;;;;;;4918696;29;20227;-63
2022/11/10 03:48:28;;;;;;;72.22;34.47;;;;;;;;;;4918782;29;20535;-63
2022/11/10 03:51:13;;;;;;;70.00;31.88;;;;;;;;;;4918503;29;20319;-63
2022/11/10 03:53:59;;;;;;;66.72;30.63;;;;;;;;;;4918999;29;20280;-62
2022/11/10 03:56:44;;;;;;;64.95;30.70;;;;;;;;;;4919012;29;20208;-63
2022/11/10 03:59:31;;;;;;;61.05;30.02;;;;;;;;;;4919266;29;20276;-63
2022/11/10 04:02:16;;;;;;;66.88;31.48;;;;;;;;;;4918810;29;20219;-63
2022/11/10 04:15:40;;;;;;;65.93;32.60;;;;;;;;;;4918539;29;20239;-62
2022/11/10 04:17:26;;;;;;;74.70;32.50;;;;;;;;;;4918434;29;20386;-63
2022/11/10 04:20:11;;;;;;;61.55;30.08;;;;;;;;;;4918463;29;20204;-63
2022/11/10 04:29:09;;;;;;;60.83;30.05;;;;;;;;;;4914470;29;20217;-64
2022/11/10 04:31:54;;;;;;;63.45;30.52;;;;;;;;;;4921766;29;20231;-63
2022/11/10 04:34:40;;;;;;;58.87;29.57;;;;;;;;;;4921783;29;20212;-63
2022/11/10 04:37:25;;;;;;;72.00;30.98;;;;;;;;;;4922500;29;20208;-63
2022/11/10 04:40:10;;;;;;;86.43;37.55;;;;;;;;;;4921797;29;20223;-64
2022/11/10 04:42:55;;;;;;;65.13;31.30;;;;;;;;;;4925756;29;20214;-64
2022/11/10 04:45:42;;;;;;;60.95;30.67;;;;;;;;;;4921371;29;20204;-63
2022/11/10 04:48:28;;;;;;;58.60;29.48;;;;;;;;;;4924025;29;20252;-63
2022/11/10 04:51:13;;;;;;;63.15;30.23;;;;;;;;;;4927287;29;20232;-64
2022/11/10 04:53:59;;;;;;;57.43;30.07;;;;;;;;;;4924222;29;20251;-63
2022/11/10 04:56:44;;;;;;;62.83;30.92;;;;;;;;;;4912288;29;20628;-64
2022/11/10 04:59:30;;;;;;;67.40;30.70;;;;;;;;;;4924257;29;20537;-63
2022/11/10 05:02:16;;;;;;;63.77;29.93;;;;;;;;;;4919629;29;20209;-63
2022/11/10 05:05:02;;;;;;;82.60;42.73;;;;;;;;;;4917917;29;20335;-62
2022/11/10 05:07:48;;;;;;;82.97;35.37;;;;;;;;;;4901481;29;20669;-61
2022/11/10 05:10:34;;;;;;;66.45;30.90;;;;;;;;;;4901358;29;20285;-62
2022/11/10 05:13:20;;;;;;;65.38;30.90;;;;;;;;;;4919257;29;20244;-61
2022/11/10 05:16:07;;;;;;;69.33;32.17;;;;;;;;;;4907991;29;20235;-62
2022/11/10 05:18:54;;;;;;;62.75;30.85;;;;;;;;;;4935368;29;20244;-63
2022/11/10 05:21:40;;;;;;;94.90;46.35;;;;;;;;;;4939055;29;20318;-61
2022/11/10 05:24:26;;;;;;;61.83;31.05;;;;;;;;;;4939074;29;20239;-62
2022/11/10 05:27:11;;;;;;;76.10;43.37;;;;;;;;;;4938889;29;20242;-63
2022/11/10 05:29:57;;;;;;;103.77;62.80;;;;;;;;;;4939299;29;20227;-62
2022/11/10 05:32:42;;;;;;;70.97;34.87;;;;;;;;;;4938349;29;20232;-62
2022/11/10 05:35:28;;;;;;;64.23;33.07;;;;;;;;;;4938690;29;20614;-63
2022/11/10 05:38:13;;;;;;;73.63;33.93;;;;;;;;;;4938947;29;20241;-63
2022/11/10 05:40:59;;;;;;;63.67;31.38;;;;;;;;;;4938754;29;20224;-63
2022/11/10 05:43:44;;;;;;;61.63;30.87;;;;;;;;;;4939130;29;20376;-63
2022/11/10 05:46:30;;;;;;;61.08;31.63;;;;;;;;;;4938821;29;20232;-62
2022/11/10 05:49:16;;;;;;;64.40;29.58;;;;;;;;;;4938742;29;20664;-63
2022/11/10 05:52:01;;;;;;;62.42;30.35;;;;;;;;;;4921318;29;20232;-63
2022/11/10 05:54:47;;;;;;;68.33;33.10;;;;;;;;;;4936985;29;20375;-62
2022/11/10 05:57:32;;;;;;;64.37;33.97;;;;;;;;;;4937446;29;20243;-62
2022/11/10 06:00:20;;;;;;;65.43;33.53;;;;;;;;;;4937751;29;20287;-62
2022/11/10 06:03:14;;;;;;;73.35;35.10;;;;;;;;;;4919212;29;20265;-63
2022/11/10 06:06:00;;;;;;;64.50;32.20;;;;;;;;;;4915100;29;20249;-63
2022/11/10 06:08:46;;;;;;;67.13;33.25;;;;;;;;;;4919594;29;20193;-63
2022/11/10 06:11:31;;;;;;;71.80;32.85;;;;;;;;;;4920174;29;20326;-63
2022/11/10 06:14:17;;;;;;;68.13;32.45;;;;;;;;;;4920453;29;20209;-63
2022/11/10 06:17:02;;;;;;;65.90;32.63;;;;;;;;;;4920002;29;20212;-62
2022/11/10 06:19:47;;;;;;;73.50;33.75;;;;;;;;;;4920332;29;20204;-63
2022/11/10 06:22:33;;;;;;;90.03;44.85;;;;;;;;;;4920132;29;20196;-63
2022/11/10 06:25:18;;;;;;;79.88;36.78;;;;;;;;;;4919996;29;20212;-64
2022/11/10 06:28:04;;;;;;;71.97;34.72;;;;;;;;;;4919995;29;20227;-64
2022/11/10 06:30:50;;;;;;;75.35;34.85;;;;;;;;;;4920016;29;20220;-63
2022/11/10 06:33:35;;;;;;;78.97;35.20;;;;;;;;;;4920151;29;20236;-63
2022/11/10 06:36:21;;;;;;;77.27;34.00;;;;;;;;;;4919804;29;20209;-64
2022/11/10 06:39:06;;;;;;;73.53;36.05;;;;;;;;;;4919594;29;20590;-63
2022/11/10 06:41:52;;;;;;;67.93;33.77;;;;;;;;;;4905706;29;20621;-63
2022/11/10 06:44:38;;;;;;;70.35;34.60;;;;;;;;;;4918705;29;20621;-63
2022/11/10 06:47:23;;;;;;;78.18;36.72;;;;;;;;;;4919714;29;20213;-63
2022/11/10 06:50:09;;;;;;;91.97;42.13;;;;;;;;;;4918230;29;20643;-62
2022/11/10 06:52:56;;;;;;;84.75;40.63;;;;;;;;;;4917235;29;20644;-62
2022/11/10 06:55:41;;;;;;;75.70;37.63;;;;;;;;;;4919027;29;20196;-61
2022/11/10 06:58:26;;;;;;;82.40;38.80;;;;;;;;;;4900023;29;20204;-62
2022/11/10 07:01:12;;;;;;;73.77;36.47;;;;;;;;;;4902613;29;20197;-63
2022/11/10 07:03:57;;;;;;;82.57;38.50;;;;;;;;;;4918647;29;20229;-62
2022/11/10 07:07:03;;;;;;;84.05;40.42;;;;;;;;;;4919063;29;20296;-62
2022/11/10 07:09:49;;;;;;;83.72;37.63;;;;;;;;;;4919195;29;20613;-62
2022/11/10 07:12:34;;;;;;;157.65;78.75;;;;;;;;;;4918393;29;20213;-61
2022/11/10 07:15:20;;;;;;;95.95;43.17;;;;;;;;;;4919186;29;20197;-62
2022/11/10 07:18:05;;;;;;;94.35;39.67;;;;;;;;;;4918729;29;20228;-63
2022/11/10 07:20:51;;;;;;;86.05;40.33;;;;;;;;;;4918987;29;20196;-62
2022/11/10 07:23:36;;;;;;;81.40;39.05;;;;;;;;;;4918007;29;20197;-63
2022/11/10 07:26:22;;;;;;;80.78;39.00;;;;;;;;;;4918944;29;20208;-63
2022/11/10 07:29:08;;;;;;;81.65;37.65;;;;;;;;;;4918955;29;20203;-62
2022/11/10 07:31:53;;;;;;;84.75;38.75;;;;;;;;;;4918270;29;20213;-63
2022/11/10 07:34:39;;;;;;;85.85;40.20;;;;;;;;;;4918402;29;20277;-62
2022/11/10 07:37:25;;;;;;;81.38;38.67;;;;;;;;;;4918665;29;20204;-62
2022/11/10 07:40:10;;;;;;;96.50;46.27;;;;;;;;;;4919041;29;20204;-62
2022/11/10 07:42:56;;;;;;;109.80;46.72;;;;;;;;;;4918249;29;20203;-62
2022/11/10 07:45:41;;;;;;;86.22;41.53;;;;;;;;;;4918201;29;20197;-62
2022/11/10 07:48:27;;;;;;;85.20;39.40;;;;;;;;;;4917419;29;20204;-62
2022/11/10 07:51:12;;;;;;;92.28;40.50;;;;;;;;;;4918464;29;20221;-62
2022/11/10 07:53:58;;;;;;;78.65;39.17;;;;;;;;;;4871876;29;20642;-62
2022/11/10 07:56:44;;;;;;;82.75;39.25;;;;;;;;;;4902820;29;20207;-62
2022/11/10 07:59:29;;;;;;;77.80;38.50;;;;;;;;;;4918550;29;20188;-62
2022/11/10 08:02:14;;;;;;;90.05;41.42;;;;;;;;;;4917945;29;20224;-62
2022/11/10 08:05:00;;;;;;;88.13;44.00;;;;;;;;;;4918010;29;20532;-62
2022/11/10 08:07:45;;;;;;;90.93;41.65;;;;;;;;;;4918381;29;20201;-62
2022/11/10 08:10:32;;;;;;;87.25;40.90;;;;;;;;;;4918552;29;20184;-62
2022/11/10 08:13:17;;;;;;;85.68;39.20;;;;;;;;;;4917969;29;20288;-62
2022/11/10 08:16:04;;;;;;;88.88;40.35;;;;;;;;;;4917999;29;20624;-63
2022/11/10 08:18:50;;;;;;;83.15;40.05;;;;;;;;;;4904266;29;20252;-62
2022/11/10 08:21:35;;;;;;;77.72;38.58;;;;;;;;;;4918061;29;20213;-62
2022/11/10 08:24:21;;;;;;;82.07;39.30;;;;;;;;;;4917435;29;20200;-63
2022/11/10 08:27:06;;;;;;;80.80;40.33;;;;;;;;;;4918283;29;20220;-62
2022/11/10 08:29:51;;;;;;;77.20;38.17;;;;;;;;;;4918307;29;20271;-63
2022/11/10 08:32:37;;;;;;;78.45;38.05;;;;;;;;;;4918032;29;20208;-62
2022/11/10 08:35:24;;;;;;;85.57;40.60;;;;;;;;;;4917737;29;20197;-62
2022/11/10 08:38:20;;;;;;;88.07;41.05;;;;;;;;;;4918273;29;20275;-62
2022/11/10 08:41:05;;;;;;;86.50;39.35;;;;;;;;;;4918198;29;20208;-62
2022/11/10 08:43:51;;;;;;;82.03;39.88;;;;;;;;;;4917639;29;20208;-62
2022/11/10 08:46:37;;;;;;;86.15;39.45;;;;;;;;;;4917825;29;20204;-62
2022/11/10 08:49:22;;;;;;;88.40;41.10;;;;;;;;;;4917769;29;20229;-62
2022/11/10 08:52:09;;;;;;;86.53;39.42;;;;;;;;;;4917541;29;20216;-62
2022/11/10 08:54:54;;;;;;;86.82;40.90;;;;;;;;;;4917689;29;20260;-61
2022/11/10 08:57:40;;;;;;;146.20;72.97;;;;;;;;;;4898969;29;20310;-61
2022/11/10 09:00:27;;;;;;;107.28;46.63;;;;;;;;;;4902490;29;20260;-62
2022/11/10 09:03:20;;;;;;;93.75;43.38;;;;;;;;;;4918011;29;20197;-60
2022/11/10 09:06:06;;;;;;;93.80;42.33;;;;;;;;;;4917535;29;20264;-61
2022/11/10 09:08:52;;;;;;;88.72;42.17;;;;;;;;;;4921468;29;20192;-61
2022/11/10 09:11:37;;;;;;;85.85;40.90;;;;;;;;;;4920917;29;20563;-61
2022/11/10 09:14:23;;;;;;;92.55;43.38;;;;;;;;;;4920595;29;20283;-61
2022/11/10 09:17:09;;;;;;;84.70;41.40;;;;;;;;;;4920812;29;20201;-62
2022/11/10 09:19:55;;;;;;;97.75;42.88;;;;;;;;;;4921280;29;20259;-62
2022/11/10 09:22:41;;;;;;;166.85;73.78;;;;;;;;;;4902365;29;20201;-62
2022/11/10 09:25:26;;;;;;;116.78;48.80;;;;;;;;;;4904298;29;20249;-62
2022/11/10 09:28:13;;;;;;;98.32;45.53;;;;;;;;;;4921257;29;20208;-62
2022/11/10 09:30:58;;;;;;;89.82;40.90;;;;;;;;;;4921078;29;20215;-62
2022/11/10 09:33:44;;;;;;;96.70;43.90;;;;;;;;;;4921105;29;20200;-62
2022/11/10 09:36:29;;;;;;;101.15;43.70;;;;;;;;;;4920591;29;20193;-62
2022/11/10 09:39:15;;;;;;;90.30;42.67;;;;;;;;;;4920863;29;20188;-62
2022/11/10 09:42:01;;;;;;;87.15;42.22;;;;;;;;;;4920691;29;20327;-61
2022/11/10 09:44:51;;;;;;;90.50;42.25;;;;;;;;;;4906258;29;20193;-60
2022/11/10 09:47:41;;;;;;;98.40;45.15;;;;;;;;;;4906667;29;20200;-61
2022/11/10 09:51:16;;;;;;;113.38;48.15;;;;;;;;;;4920439;29;20204;-61
2022/11/10 09:54:30;;;;;;;94.38;41.78;;;;;;;;;;4906559;29;20529;-61
2022/11/10 09:57:21;;;;;;;87.93;40.30;;;;;;;;;;4905846;29;20201;-61
2022/11/10 10:00:12;;;;;;;80.95;39.83;;;;;;;;;;4887664;29;20254;-61
2022/11/10 10:03:01;;;;;;;78.55;38.97;;;;;;;;;;4887290;29;20238;-61
2022/11/10 10:05:52;;;;;;;80.30;39.28;;;;;;;;;;4903497;29;20204;-60
2022/11/10 10:08:47;;;;;;;81.50;39.58;;;;;;;;;;4920156;29;20201;-61
2022/11/10 10:11:41;;;;;;;79.97;39.38;;;;;;;;;;4906290;29;20235;-60
2022/11/10 10:15:09;;;;;;;107.72;52.70;;;;;;;;;;4920266;29;20272;-59
2022/11/10 10:18:17;;;;;;;96.88;42.45;;;;;;;;;;4920145;29;20232;-61
2022/11/10 10:21:11;;;;;;;84.15;41.20;;;;;;;;;;4906330;29;20658;-60
2022/11/10 10:23:58;;;;;;;77.43;38.58;;;;;;;;;;4916314;29;20212;-60
2022/11/10 10:26:59;;;;;;;77.88;37.50;;;;;;;;;;4906773;29;20201;-54
2022/11/10 10:29:46;;;;;;;74.63;37.35;;;;;;;;;;4919029;29;20526;-59
2022/11/10 10:32:32;;;;;;;81.30;37.90;;;;;;;;;;4918366;29;20217;-60
2022/11/10 10:35:18;;;;;;;78.32;38.33;;;;;;;;;;4900261;29;20197;-60
2022/11/10 10:38:04;;;;;;;82.47;39.92;;;;;;;;;;4917432;29;20632;-61
2022/11/10 10:40:51;;;;;;;119.40;58.15;;;;;;;;;;4919731;29;20555;-60
2022/11/10 10:43:40;;;;;;;85.47;41.70;;;;;;;;;;4919765;29;20595;-60
2022/11/10 10:46:28;;;;;;;83.22;38.95;;;;;;;;;;4905860;29;20213;-61
2022/11/10 10:49:21;;;;;;;83.32;38.78;;;;;;;;;;4918503;29;20213;-61
2022/11/10 10:52:16;;;;;;;80.05;38.33;;;;;;;;;;4918647;29;20360;-61
2022/11/10 10:55:07;;;;;;;74.53;37.55;;;;;;;;;;4919195;29;20185;-61
2022/11/10 10:57:58;;;;;;;70.55;35.78;;;;;;;;;;4919151;29;20264;-61
2022/11/10 11:00:46;;;;;;;74.10;36.03;;;;;;;;;;4918958;29;20193;-60
2022/11/10 11:03:48;;;;;;;77.15;35.75;;;;;;;;;;4919082;29;20565;-62
2022/11/10 11:06:34;;;;;;;94.13;48.53;;;;;;;;;;4917978;29;20238;-61
2022/11/10 11:09:25;;;;;;;89.00;42.13;;;;;;;;;;4918635;29;20276;-61
2022/11/10 11:12:16;;;;;;;76.10;39.45;;;;;;;;;;4918528;29;20233;-61
2022/11/10 11:15:12;;;;;;;77.30;35.67;;;;;;;;;;4918682;29;20298;-61
2022/11/10 11:17:59;;;;;;;69.78;34.72;;;;;;;;;;4918974;29;20252;-60
2022/11/10 11:21:10;;;;;;;67.45;33.30;;;;;;;;;;4918080;29;20209;-60
2022/11/10 11:24:21;;;;;;;66.88;32.50;;;;;;;;;;4918285;29;20260;-60
2022/11/10 11:27:30;;;;;;;64.72;32.22;;;;;;;;;;4904898;29;20209;-61
2022/11/10 11:30:21;;;;;;;69.13;32.78;;;;;;;;;;4917840;29;20212;-60
2022/11/10 11:33:24;;;;;;;163.55;75.20;;;;;;;;;;4904758;29;20227;-60
2022/11/10 11:36:30;;;;;;;89.72;39.22;;;;;;;;;;4918648;29;20197;-61
2022/11/10 11:39:37;;;;;;;67.15;32.85;;;;;;;;;;4898517;29;20247;-62
2022/11/10 11:42:44;;;;;;;63.83;32.47;;;;;;;;;;4904687;29;20201;-61
2022/11/10 11:45:52;;;;;;;66.65;30.52;;;;;;;;;;4918730;29;20197;-60
2022/11/10 11:49:14;;;;;;;66.97;33.83;;;;;;;;;;4904676;29;20208;-60
2022/11/10 11:52:05;;;;;;;65.60;32.38;;;;;;;;;;4904361;29;20225;-60
2022/11/10 11:55:19;;;;;;;72.45;32.72;;;;;;;;;;4918547;29;20205;-60
2022/11/10 11:58:44;;;;;;;78.30;37.25;;;;;;;;;;4918225;29;20204;-61
2022/11/10 12:01:51;;;;;;;78.53;36.15;;;;;;;;;;4917080;29;20205;-61
2022/11/10 12:04:57;;;;;;;68.60;32.63;;;;;;;;;;4917464;29;20204;-61
2022/11/10 12:07:54;;;;;;;79.72;33.67;;;;;;;;;;4917920;29;20632;-61
2022/11/10 12:10:59;;;;;;;64.85;31.60;;;;;;;;;;4918388;29;20280;-61
2022/11/10 12:14:09;;;;;;;67.80;31.40;;;;;;;;;;4904481;29;20232;-61
2022/11/10 12:17:25;;;;;;;69.47;34.03;;;;;;;;;;4918087;29;20532;-61
2022/11/10 12:20:23;;;;;;;67.53;32.70;;;;;;;;;;4887380;29;20275;-60
2022/11/10 12:23:45;;;;;;;64.90;32.15;;;;;;;;;;4917793;29;20212;-61
2022/11/10 12:26:39;;;;;;;83.30;37.53;;;;;;;;;;4918031;29;20193;-61
2022/11/10 12:29:28;;;;;;;75.57;34.60;;;;;;;;;;4917788;29;20640;-62
2022/11/10 12:32:32;;;;;;;77.72;36.40;;;;;;;;;;4917301;29;20213;-61
2022/11/10 12:35:26;;;;;;;66.82;32.80;;;;;;;;;;4917964;29;20199;-61
2022/11/10 12:39:02;;;;;;;67.28;32.13;;;;;;;;;;4903717;29;20223;-61
2022/11/10 12:41:53;;;;;;;56.97;28.65;;;;;;;;;;4860214;29;20300;-60
2022/11/10 12:44:55;;;;;;;76.65;32.22;;;;;;;;;;4850545;29;20199;-62
2022/11/10 12:47:42;;;;;;;62.70;29.73;;;;;;;;;;4907964;29;20180;-61
2022/11/10 12:53:39;;;;;;;82.07;35.22;;;;;;;;;;4844060;29;20266;-58
2022/11/10 12:56:33;;;;;;;66.70;31.17;;;;;;;;;;4989763;23;20586;-60
2022/11/10 12:59:18;;;;;;;68.85;30.35;;;;;;;;;;4878395;29;20265;-58
2022/11/10 13:05:13;;;;;;;56.00;26.75;;;;;;;;;;4555040;23;20572;-58
2022/11/10 13:08:04;;;;;;;58.97;27.15;;;;;;;;;;4919627;29;20549;-62
2022/11/10 13:10:57;;;;;;;51.70;25.45;;;;;;;;;;4920961;29;20193;-59
2022/11/10 13:13:46;;;;;;;47.55;24.92;;;;;;;;;;4906551;29;20208;-59
2022/11/10 13:16:43;;;;;;;135.80;67.95;;;;;;;;;;4906690;29;20192;-59
2022/11/10 13:19:32;;;;;;;77.93;32.13;;;;;;;;;;4919510;29;20192;-59
2022/11/10 13:22:32;;;;;;;67.30;29.83;;;;;;;;;;4920601;29;20208;-58
2022/11/10 13:25:41;;;;;;;59.40;26.20;;;;;;;;;;4913575;29;20201;-58
2022/11/10 13:28:44;;;;;;;70.85;29.88;;;;;;;;;;4919808;29;20207;-60
2022/11/10 13:31:31;;;;;;;61.30;27.98;;;;;;;;;;4931355;29;20276;-59
2022/11/10 13:34:17;;;;;;;75.50;31.90;;;;;;;;;;4921527;29;20208;-61
2022/11/10 13:37:28;;;;;;;71.40;32.72;;;;;;;;;;4924118;29;20212;-59
2022/11/10 13:40:17;;;;;;;82.43;34.13;;;;;;;;;;4900740;29;20230;-58
2022/11/10 13:43:18;;;;;;;103.75;46.63;;;;;;;;;;4907477;29;20232;-58
2022/11/10 13:46:04;;;;;;;95.32;38.10;;;;;;;;;;4905355;29;20256;-59
2022/11/10 13:48:55;;;;;;;89.05;38.33;;;;;;;;;;4919040;29;20511;-58
2022/11/10 13:52:05;;;;;;;89.57;36.40;;;;;;;;;;4900767;29;20261;-57
2022/11/10 13:55:05;;;;;;;92.25;38.90;;;;;;;;;;4900913;29;20233;-57
2022/11/10 13:57:59;;;;;;;91.82;38.17;;;;;;;;;;4905281;29;20220;-58
2022/11/10 14:01:08;;;;;;;83.05;35.45;;;;;;;;;;4905556;29;20232;-59
2022/11/10 14:03:57;;;;;;;86.90;36.45;;;;;;;;;;4919011;29;20284;-58
2022/11/10 14:06:52;;;;;;;98.38;40.08;;;;;;;;;;4905440;29;20233;-57
2022/11/10 14:09:39;;;;;;;118.93;47.17;;;;;;;;;;4918925;29;20242;-60
2022/11/10 14:12:59;;;;;;;99.97;40.05;;;;;;;;;;4919022;29;20706;-57
2022/11/10 14:15:46;;;;;;;86.95;38.60;;;;;;;;;;4905469;29;20455;-55
2022/11/10 14:18:38;;;;;;;86.75;37.17;;;;;;;;;;4918789;29;20220;-57
2022/11/10 14:21:28;;;;;;;88.18;37.60;;;;;;;;;;4918606;29;20256;-59
2022/11/10 14:24:26;;;;;;;82.30;36.50;;;;;;;;;;4904160;29;20537;-58
2022/11/10 14:27:22;;;;;;;80.00;36.47;;;;;;;;;;4919722;29;20303;-58
2022/11/10 14:30:13;;;;;;;78.53;33.92;;;;;;;;;;4886199;29;20276;-58
2022/11/10 14:33:05;;;;;;;78.57;35.15;;;;;;;;;;4906376;29;20208;-59
2022/11/10 14:35:54;;;;;;;122.40;51.47;;;;;;;;;;4919660;29;20632;-58
2022/11/10 14:38:42;;;;;;;87.07;40.00;;;;;;;;;;4919051;29;20605;-58
2022/11/10 14:41:28;;;;;;;95.32;45.00;;;;;;;;;;4905640;29;20178;-57
2022/11/10 14:44:20;;;;;;;96.32;47.92;;;;;;;;;;4905957;29;20204;-58
2022/11/10 14:47:25;;;;;;;91.53;45.95;;;;;;;;;;4927028;29;20267;-58
2022/11/10 14:50:13;;;;;;;83.35;42.40;;;;;;;;;;4920513;29;20207;-57
2022/11/10 14:53:28;;;;;;;84.13;37.63;;;;;;;;;;4922811;29;20227;-59
2022/11/10 14:56:16;;;;;;;75.65;36.17;;;;;;;;;;4910464;29;20200;-58
2022/11/10 14:59:04;;;;;;;75.50;36.72;;;;;;;;;;4920355;29;20797;-59
2022/11/10 15:01:58;;;;;;;93.80;42.72;;;;;;;;;;4902940;29;20211;-61
2022/11/10 15:04:45;;;;;;;78.68;37.90;;;;;;;;;;4894972;29;20233;-55
2022/11/10 15:07:30;;;;;;;82.95;39.17;;;;;;;;;;4901818;29;20235;-60
2022/11/10 15:10:16;;;;;;;75.53;36.70;;;;;;;;;;4903464;29;20239;-59
2022/11/10 15:13:06;;;;;;;73.50;36.03;;;;;;;;;;4915397;29;20237;-61
2022/11/10 15:16:29;;;;;;;82.85;37.60;;;;;;;;;;4917291;29;20255;-60
2022/11/10 15:19:30;;;;;;;76.57;34.75;;;;;;;;;;4916299;29;20547;-57
2022/11/10 15:22:21;;;;;;;151.55;65.65;;;;;;;;;;4893884;29;20236;-59
2022/11/10 15:25:12;;;;;;;77.85;36.22;;;;;;;;;;4912978;29;20380;-58
2022/11/10 15:28:13;;;;;;;132.30;55.33;;;;;;;;;;4931450;29;20244;-60
2022/11/10 15:31:04;;;;;;;88.80;37.45;;;;;;;;;;4907264;29;20320;-60
2022/11/10 15:33:53;;;;;;;74.38;36.00;;;;;;;;;;4907598;29;20303;-55
2022/11/10 15:36:38;;;;;;;84.55;36.83;;;;;;;;;;4917834;29;20224;-59
2022/11/10 15:39:25;;;;;;;74.63;36.35;;;;;;;;;;4904529;29;20235;-60
2022/11/10 15:42:18;;;;;;;79.63;36.50;;;;;;;;;;4917799;29;20755;-58
2022/11/10 15:45:04;;;;;;;80.78;35.97;;;;;;;;;;4917490;29;20233;-51
2022/11/10 15:47:49;;;;;;;194.98;111.90;;;;;;;;;;4918047;29;20224;-58
2022/11/10 15:50:35;;;;;;;91.40;42.90;;;;;;;;;;4917698;29;20763;-60
2022/11/10 15:53:25;;;;;;;88.00;39.83;;;;;;;;;;4919697;29;20251;-59
2022/11/10 15:56:19;;;;;;;81.32;38.58;;;;;;;;;;4912587;29;20236;-50
2022/11/10 15:59:04;;;;;;;78.43;36.53;;;;;;;;;;4918064;29;20324;-49
2022/11/10 16:01:50;;;;;;;77.47;37.35;;;;;;;;;;4917687;29;20252;-53
2022/11/10 16:04:36;;;;;;;77.32;37.20;;;;;;;;;;4903254;29;20252;-59
2022/11/10 16:07:22;;;;;;;73.07;38.10;;;;;;;;;;4915001;29;20221;-56
2022/11/10 16:10:08;;;;;;;84.80;37.67;;;;;;;;;;4907076;29;20702;-62
2022/11/10 16:12:54;;;;;;;81.03;39.08;;;;;;;;;;4914761;29;20240;-59
2022/11/10 16:15:40;;;;;;;102.68;50.30;;;;;;;;;;4917910;29;20233;-59
2022/11/10 16:18:28;;;;;;;94.45;40.92;;;;;;;;;;4907735;29;20252;-60
2022/11/10 16:21:15;;;;;;;111.22;46.55;;;;;;;;;;4902713;29;20235;-59
2022/11/10 16:24:02;;;;;;;87.35;40.00;;;;;;;;;;4902924;29;20236;-59
2022/11/10 16:26:47;;;;;;;79.75;38.20;;;;;;;;;;4902340;29;20229;-59
2022/11/10 16:29:34;;;;;;;77.50;36.15;;;;;;;;;;4902748;29;20229;-58
2022/11/10 16:32:20;;;;;;;77.22;37.83;;;;;;;;;;4902766;29;20563;-58
2022/11/10 16:35:11;;;;;;;77.00;36.83;;;;;;;;;;4902759;29;20284;-58
2022/11/10 16:37:56;;;;;;;74.93;37.45;;;;;;;;;;4902466;29;20687;-58
2022/11/10 16:40:42;;;;;;;85.80;41.35;;;;;;;;;;4902450;29;20233;-58
2022/11/10 16:43:29;;;;;;;79.53;37.70;;;;;;;;;;4902414;29;20229;-58
2022/11/10 16:46:23;;;;;;;83.63;38.97;;;;;;;;;;4902505;29;20233;-58
2022/11/10 16:49:25;;;;;;;77.50;37.60;;;;;;;;;;4892844;29;20678;-59
2022/11/10 16:52:14;;;;;;;82.60;39.08;;;;;;;;;;4923064;29;20683;-56
2022/11/10 16:54:59;;;;;;;81.20;39.78;;;;;;;;;;4915622;29;20395;-59